createdAt,value
2019-02-17T00:01:01.098Z,56197.16
2019-02-17T00:03:31.185Z,56207.44
2019-02-17T00:06:01.018Z,56233.15
2019-02-17T00:08:31.095Z,56189.96
2019-02-17T00:11:01.243Z,56202.30
2019-02-17T00:13:31.067Z,56192.02
2019-02-17T00:16:00.906Z,56200.24
2019-02-17T00:19:15.974Z,56175.56
2019-02-17T00:21:45.813Z,56209.50
2019-02-17T00:24:15.725Z,56168.37
2019-02-17T00:26:45.564Z,56213.61
2019-02-17T00:29:15.751Z,56240.34
2019-02-17T00:31:45.632Z,56173.51
2019-02-17T00:34:15.729Z,56190.99
2019-02-17T00:36:45.641Z,56180.71
2019-02-17T00:39:15.526Z,56224.92
2019-02-17T00:41:45.398Z,56231.09
2019-02-17T00:44:15.222Z,56208.47
2019-02-17T00:46:45.340Z,56195.10
2019-02-17T00:49:15.789Z,56200.24
2019-02-17T00:51:45.888Z,56184.82
2019-02-17T00:54:16.265Z,56200.24
2019-02-17T00:56:46.344Z,56198.19
2019-02-17T00:59:16.508Z,56200.24
2019-02-17T01:01:46.339Z,56181.73
2019-02-17T01:04:17.052Z,56228.01
2019-02-17T01:06:47.158Z,56202.30
2019-02-17T01:09:17.097Z,56185.85
2019-02-17T01:11:47.004Z,56200.24
2019-02-17T01:14:17.554Z,56180.71
2019-02-17T01:16:47.429Z,56212.58
2019-02-17T01:19:17.777Z,56211.55
2019-02-17T01:21:47.655Z,56186.87
2019-02-17T01:24:18.001Z,56190.99
2019-02-17T01:26:47.960Z,56193.05
2019-02-17T01:29:20.436Z,56205.38
2019-02-17T01:31:49.950Z,56216.70
2019-02-17T01:34:19.779Z,56212.58
2019-02-17T01:36:50.257Z,56202.30
2019-02-17T01:39:20.118Z,56225.95
2019-02-17T01:41:50.286Z,56195.10
2019-02-17T01:44:20.131Z,56225.95
2019-02-17T01:46:50.039Z,56209.50
2019-02-17T01:49:19.876Z,56221.84
2019-02-17T01:51:49.996Z,56195.10
2019-02-17T01:54:19.864Z,56197.16
2019-02-17T01:56:49.964Z,56193.05
2019-02-17T01:59:30.058Z,56207.44
2019-02-17T02:01:51.699Z,56192.02
2019-02-17T02:04:21.861Z,56201.27
2019-02-17T02:06:51.967Z,56199.21
2019-02-17T02:09:22.859Z,56188.93
2019-02-17T02:11:53.484Z,56180.71
2019-02-17T02:14:23.647Z,56194.07
2019-02-17T02:16:53.557Z,56238.29
2019-02-17T02:19:23.700Z,56215.67
2019-02-17T02:21:53.940Z,56201.27
2019-02-17T02:24:24.360Z,56188.93
2019-02-17T02:26:54.699Z,56210.52
2019-02-17T02:29:24.542Z,56193.05
2019-02-17T02:31:54.494Z,56207.44
2019-02-17T02:34:24.399Z,56230.06
2019-02-17T02:36:54.811Z,56189.96
2019-02-17T02:39:24.712Z,56203.33
2019-02-17T02:41:55.338Z,56203.33
2019-02-17T02:44:25.179Z,56206.41
2019-02-17T02:46:55.321Z,56230.06
2019-02-17T02:49:25.171Z,56199.21
2019-02-17T02:51:55.114Z,56214.64
2019-02-17T02:54:25.226Z,56216.70
2019-02-17T02:56:55.132Z,56217.72
2019-02-17T02:59:24.986Z,56225.95
2019-02-17T03:01:54.900Z,56221.84
2019-02-17T03:04:25.055Z,56217.72
2019-02-17T03:06:56.977Z,56208.47
2019-02-17T03:09:26.882Z,56204.36
2019-02-17T03:11:56.958Z,56199.21
2019-02-17T03:14:26.829Z,56225.95
2019-02-17T03:16:56.659Z,56223.89
2019-02-17T03:19:26.503Z,56208.47
2019-02-17T03:21:57.130Z,56219.78
2019-02-17T03:24:27.046Z,56223.89
2019-02-17T03:26:57.368Z,56225.95
2019-02-17T03:29:27.547Z,56216.70
2019-02-17T03:31:58.194Z,56178.65
2019-02-17T03:34:28.679Z,56233.15
2019-02-17T03:36:58.816Z,56236.23
2019-02-17T03:39:28.952Z,56216.70
2019-02-17T03:41:58.938Z,56201.27
2019-02-17T03:44:29.321Z,56270.17
2019-02-17T03:46:59.155Z,56169.39
2019-02-17T03:49:29.242Z,56201.27
2019-02-17T03:51:59.105Z,56229.04
2019-02-17T03:54:29.191Z,56219.78
2019-02-17T03:56:59.060Z,56209.50
2019-02-17T03:59:29.438Z,56181.73
2019-02-17T04:01:59.761Z,56196.13
2019-02-17T04:04:29.634Z,56195.10
2019-02-17T04:07:00.017Z,56202.30
2019-02-17T04:09:30.202Z,56230.06
2019-02-17T04:12:00.835Z,56194.07
2019-02-17T04:14:30.943Z,56209.50
2019-02-17T04:17:00.801Z,56208.47
2019-02-17T04:19:31.163Z,56212.58
2019-02-17T04:22:01.359Z,56193.05
2019-02-17T04:24:31.199Z,56228.01
2019-02-17T04:27:01.571Z,56217.72
2019-02-17T04:29:31.411Z,56209.50
2019-02-17T04:32:01.287Z,56230.06
2019-02-17T04:34:31.146Z,56225.95
2019-02-17T04:37:01.264Z,56167.34
2019-02-17T04:39:31.923Z,56182.76
2019-02-17T04:42:01.801Z,56220.81
2019-02-17T04:44:32.231Z,56220.81
2019-02-17T04:47:02.128Z,56217.72
2019-02-17T04:49:32.052Z,56207.44
2019-02-17T04:52:02.131Z,56208.47
2019-02-17T04:54:32.075Z,56186.87
2019-02-17T04:57:02.191Z,56222.87
2019-02-17T04:59:32.266Z,56239.32
2019-02-17T05:02:02.099Z,56211.55
2019-02-17T05:04:32.528Z,56221.84
2019-02-17T05:07:02.869Z,56207.44
2019-02-17T05:09:32.742Z,56203.33
2019-02-17T05:12:02.655Z,56218.75
2019-02-17T05:14:33.054Z,56238.29
2019-02-17T05:17:02.899Z,56197.16
2019-02-17T05:19:32.817Z,56215.67
2019-02-17T05:22:03.443Z,56214.64
2019-02-17T05:24:33.581Z,56230.06
2019-02-17T05:27:03.701Z,56216.70
2019-02-17T05:29:33.787Z,56189.96
2019-02-17T05:32:03.732Z,56209.50
2019-02-17T05:34:33.812Z,56190.99
2019-02-17T05:37:03.687Z,56174.54
2019-02-17T05:39:33.781Z,56186.87
2019-02-17T05:42:03.827Z,56215.67
2019-02-17T05:44:33.715Z,56199.21
2019-02-17T05:47:04.061Z,56163.23
2019-02-17T05:49:33.921Z,56204.36
2019-02-17T05:52:04.129Z,56208.47
2019-02-17T05:54:34.023Z,56182.76
2019-02-17T05:57:04.419Z,56184.82
2019-02-17T05:59:34.303Z,56195.10
2019-02-17T06:02:04.461Z,56206.41
2019-02-17T06:04:34.295Z,56218.75
2019-02-17T06:07:04.173Z,56249.60
2019-02-17T06:09:34.327Z,56204.36
2019-02-17T06:12:04.462Z,56197.16
2019-02-17T06:14:34.567Z,56207.44
2019-02-17T06:17:04.408Z,56201.27
2019-02-17T06:19:34.383Z,56200.24
2019-02-17T06:22:04.481Z,56230.06
2019-02-17T06:24:34.652Z,56176.59
2019-02-17T06:27:04.956Z,56195.10
2019-02-17T06:29:35.330Z,56202.30
2019-02-17T06:32:05.157Z,56238.29
2019-02-17T06:34:35.066Z,56185.85
2019-02-17T06:37:04.900Z,56209.50
2019-02-17T06:39:35.276Z,56225.95
2019-02-17T06:42:05.207Z,56205.38
2019-02-17T06:44:35.075Z,56225.95
2019-02-17T06:47:07.071Z,56231.09
2019-02-17T06:49:36.920Z,56174.54
2019-02-17T06:52:07.272Z,56210.52
2019-02-17T06:54:37.138Z,56177.62
2019-02-17T06:57:14.777Z,56221.84
2019-02-17T06:59:44.623Z,56229.04
2019-02-17T07:02:14.743Z,56216.70
2019-02-17T07:05:21.777Z,56213.61
2019-02-17T07:07:51.619Z,56172.48
2019-02-17T07:10:21.557Z,56216.70
2019-02-17T07:12:52.988Z,56193.05
2019-02-17T07:15:23.842Z,56226.98
2019-02-17T07:17:53.728Z,56210.52
2019-02-17T07:20:23.637Z,56179.68
2019-02-17T07:22:53.514Z,56186.87
2019-02-17T07:25:30.077Z,56236.23
2019-02-17T07:27:56.119Z,56225.95
2019-02-17T07:30:26.197Z,56176.59
2019-02-17T07:32:56.323Z,56167.34
2019-02-17T07:35:26.409Z,56195.10
2019-02-17T07:37:56.813Z,56230.06
2019-02-17T07:40:27.451Z,56195.10
2019-02-17T07:42:58.095Z,56174.54
2019-02-17T07:45:28.300Z,56192.02
2019-02-17T07:47:59.001Z,56187.90
2019-02-17T07:50:29.041Z,56160.14
2019-02-17T07:52:59.012Z,56170.42
2019-02-17T07:55:29.202Z,56182.76
2019-02-17T07:57:59.116Z,56197.16
2019-02-17T08:00:29.343Z,56174.54
2019-02-17T08:02:59.247Z,56195.10
2019-02-17T08:05:29.206Z,56195.10
2019-02-17T08:07:59.176Z,56211.55
2019-02-17T08:10:29.445Z,56186.87
2019-02-17T08:12:59.758Z,56197.16
2019-02-17T08:15:30.015Z,56166.31
2019-02-17T08:18:00.027Z,56137.52
2019-02-17T08:20:30.422Z,56180.71
2019-02-17T08:23:00.644Z,56188.93
2019-02-17T08:25:30.921Z,56184.82
2019-02-17T08:28:00.926Z,56137.52
2019-02-17T08:30:31.202Z,56188.93
2019-02-17T08:33:01.571Z,56134.43
2019-02-17T08:35:31.870Z,56162.20
2019-02-17T08:38:03.542Z,56156.03
2019-02-17T08:40:33.984Z,56143.69
2019-02-17T08:43:04.292Z,56179.68
2019-02-17T08:45:34.744Z,56129.29
2019-02-17T08:48:05.256Z,56158.09
2019-02-17T08:50:35.765Z,56137.52
2019-02-17T08:53:05.690Z,56148.83
2019-02-17T08:55:35.844Z,56169.39
2019-02-17T08:58:05.814Z,56141.63
2019-02-17T09:00:36.429Z,56147.80
2019-02-17T09:03:06.689Z,56153.97
2019-02-17T09:05:43.804Z,56140.61
2019-02-17T09:08:08.453Z,56143.69
2019-02-17T09:10:38.402Z,56115.93
2019-02-17T09:13:08.569Z,56150.89
2019-02-17T09:15:38.731Z,56117.98
2019-02-17T09:18:08.645Z,56136.49
2019-02-17T09:20:38.586Z,56129.29
2019-02-17T09:23:08.462Z,56116.95
2019-02-17T09:25:38.637Z,56101.53
2019-02-17T09:28:09.061Z,56092.28
2019-02-17T09:30:39.847Z,56049.09
2019-02-17T09:33:09.792Z,56016.19
2019-02-17T09:35:39.718Z,56001.79
2019-02-17T09:38:09.982Z,55989.45
2019-02-17T09:40:40.170Z,56005.90
2019-02-17T09:43:10.422Z,56010.02
2019-02-17T09:45:40.718Z,55974.03
2019-02-17T09:48:10.642Z,56003.85
2019-02-17T09:50:40.574Z,56030.58
2019-02-17T09:53:10.742Z,56018.24
2019-02-17T09:55:40.638Z,56031.61
2019-02-17T09:58:11.410Z,56053.20
2019-02-17T10:00:41.721Z,56073.77
2019-02-17T10:03:11.649Z,56079.94
2019-02-17T10:05:42.129Z,56108.73
2019-02-17T10:08:12.515Z,56096.39
2019-02-17T10:10:42.670Z,56134.43
2019-02-17T10:13:14.672Z,56094.33
2019-02-17T10:15:44.541Z,56116.95
2019-02-17T10:18:14.679Z,56138.55
2019-02-17T10:20:44.764Z,56131.35
2019-02-17T10:23:14.888Z,56111.81
2019-02-17T10:25:44.723Z,56167.34
2019-02-17T10:28:14.789Z,56147.80
2019-02-17T10:30:44.649Z,56114.90
2019-02-17T10:33:14.513Z,56096.39
2019-02-17T10:35:44.576Z,56112.84
2019-02-17T10:38:14.939Z,56143.69
2019-02-17T10:40:44.782Z,56158.09
2019-02-17T10:43:14.691Z,56133.41
2019-02-17T10:45:45.008Z,56112.84
2019-02-17T10:48:14.889Z,56107.70
2019-02-17T10:50:44.964Z,56136.49
2019-02-17T10:53:15.665Z,56129.29
2019-02-17T10:55:45.504Z,56120.04
2019-02-17T10:58:15.687Z,56133.41
2019-02-17T11:00:45.538Z,56116.95
2019-02-17T11:03:15.514Z,56148.83
2019-02-17T11:05:45.343Z,56131.35
2019-02-17T11:08:15.194Z,56124.15
2019-02-17T11:10:45.140Z,56133.41
2019-02-17T11:13:14.971Z,56135.46
2019-02-17T11:15:44.871Z,56137.52
2019-02-17T11:18:14.718Z,56156.03
2019-02-17T11:20:44.550Z,56103.59
2019-02-17T11:23:14.414Z,56123.12
2019-02-17T11:25:44.226Z,56115.93
2019-02-17T11:28:14.064Z,56130.32
2019-02-17T11:30:43.974Z,56119.01
2019-02-17T11:33:13.891Z,56125.18
2019-02-17T11:35:43.711Z,56129.29
2019-02-17T11:38:13.800Z,56134.43
2019-02-17T11:40:43.913Z,56097.42
2019-02-17T11:43:14.022Z,56126.21
2019-02-17T11:45:44.132Z,56079.94
2019-02-17T11:48:13.951Z,56078.91
2019-02-17T11:50:43.833Z,56094.33
2019-02-17T11:53:13.922Z,56102.56
2019-02-17T11:55:43.992Z,56073.77
2019-02-17T11:58:13.933Z,56095.36
2019-02-17T12:00:43.797Z,56087.14
2019-02-17T12:03:13.890Z,56120.04
2019-02-17T12:05:43.726Z,56116.95
2019-02-17T12:08:13.571Z,56096.39
2019-02-17T12:10:43.436Z,56094.33
2019-02-17T12:13:13.266Z,56082.00
2019-02-17T12:15:43.109Z,56086.11
2019-02-17T12:18:12.941Z,56065.54
2019-02-17T12:20:55.919Z,56062.46
2019-02-17T12:23:30.212Z,56062.46
2019-02-17T12:26:22.131Z,56084.05
2019-02-17T12:29:12.853Z,56077.88
2019-02-17T12:31:42.849Z,56080.96
2019-02-17T12:34:12.698Z,56068.62
2019-02-17T12:36:42.549Z,56097.42
2019-02-17T12:39:15.031Z,56096.39
2019-02-17T12:41:44.344Z,56052.18
2019-02-17T12:44:14.188Z,56036.75
2019-02-17T12:46:44.051Z,56071.71
2019-02-17T12:49:14.119Z,56063.48
2019-02-17T12:51:43.986Z,56054.23
2019-02-17T12:54:14.062Z,56041.89
2019-02-17T12:56:43.908Z,56057.32
2019-02-17T12:59:13.825Z,56098.45
2019-02-17T13:01:45.427Z,56060.40
2019-02-17T13:04:15.374Z,56036.75
2019-02-17T13:06:45.514Z,56061.43
2019-02-17T13:09:15.703Z,56014.13
2019-02-17T13:11:48.322Z,56067.60
2019-02-17T13:14:17.205Z,56034.70
2019-02-17T13:16:47.061Z,56064.51
2019-02-17T13:19:16.946Z,56068.62
2019-02-17T13:21:47.530Z,56048.06
2019-02-17T13:24:17.442Z,56020.30
2019-02-17T13:26:47.343Z,56063.48
2019-02-17T13:29:17.270Z,56051.14
2019-02-17T13:31:47.198Z,56057.32
2019-02-17T13:34:17.045Z,56048.06
2019-02-17T13:36:47.064Z,56018.24
2019-02-17T13:39:16.932Z,56061.43
2019-02-17T13:41:47.278Z,56047.03
2019-02-17T13:44:17.132Z,56043.95
2019-02-17T13:46:47.226Z,56061.43
2019-02-17T13:49:17.156Z,56021.33
2019-02-17T13:51:47.260Z,56049.09
2019-02-17T13:54:17.163Z,56084.05
2019-02-17T13:56:47.278Z,56010.02
2019-02-17T13:59:17.127Z,56018.24
2019-02-17T14:01:47.266Z,56059.37
2019-02-17T14:04:17.351Z,56075.82
2019-02-17T14:06:47.679Z,56012.07
2019-02-17T14:09:17.552Z,56046.00
2019-02-17T14:11:47.685Z,56037.78
2019-02-17T14:14:17.586Z,56055.26
2019-02-17T14:16:47.479Z,56041.89
2019-02-17T14:19:17.361Z,56062.46
2019-02-17T14:21:47.265Z,56034.70
2019-02-17T14:24:17.182Z,56051.14
2019-02-17T14:26:47.089Z,56059.37
2019-02-17T14:29:16.971Z,56078.91
2019-02-17T14:31:47.266Z,56080.96
2019-02-17T14:34:17.483Z,56059.37
2019-02-17T14:36:47.580Z,56057.32
2019-02-17T14:39:17.458Z,56064.51
2019-02-17T14:41:47.335Z,56057.32
2019-02-17T14:44:17.211Z,56066.57
2019-02-17T14:46:47.331Z,56067.60
2019-02-17T14:49:17.179Z,56070.68
2019-02-17T14:51:47.297Z,56086.11
2019-02-17T14:54:17.367Z,56073.77
2019-02-17T14:56:47.251Z,56042.92
2019-02-17T14:59:17.318Z,56075.82
2019-02-17T15:01:47.220Z,56068.62
2019-02-17T15:04:17.055Z,56068.62
2019-02-17T15:06:46.891Z,56097.42
2019-02-17T15:09:17.002Z,56082.00
2019-02-17T15:11:47.349Z,56079.94
2019-02-17T15:14:17.183Z,56108.73
2019-02-17T15:16:47.076Z,56078.91
2019-02-17T15:19:17.179Z,56066.57
2019-02-17T15:21:47.272Z,56061.43
2019-02-17T15:24:17.748Z,56092.28
2019-02-17T15:26:48.025Z,56084.05
2019-02-17T15:29:17.858Z,56095.36
2019-02-17T15:31:47.690Z,56056.29
2019-02-17T15:34:18.940Z,56126.21
2019-02-17T15:36:48.863Z,56104.62
2019-02-17T15:39:18.809Z,56098.45
2019-02-17T15:41:48.764Z,56106.67
2019-02-17T15:44:18.629Z,56073.77
2019-02-17T15:46:48.447Z,56107.70
2019-02-17T15:49:18.538Z,56110.79
2019-02-17T15:51:48.375Z,56120.04
2019-02-17T15:54:18.294Z,56134.43
2019-02-17T15:56:48.162Z,56121.07
2019-02-17T15:59:18.039Z,56104.62
2019-02-17T16:01:48.117Z,56123.12
2019-02-17T16:04:27.847Z,56133.41
2019-02-17T16:06:49.776Z,56139.57
2019-02-17T16:09:19.611Z,56131.35
2019-02-17T16:11:49.489Z,56142.66
2019-02-17T16:14:19.582Z,56093.30
2019-02-17T16:16:49.676Z,56114.90
2019-02-17T16:19:20.000Z,56122.09
2019-02-17T16:21:49.914Z,56124.15
2019-02-17T16:24:20.557Z,56110.79
2019-02-17T16:26:50.526Z,56123.12
2019-02-17T16:29:20.362Z,56123.12
2019-02-17T16:31:50.248Z,56133.41
2019-02-17T16:34:20.126Z,56149.86
2019-02-17T16:36:49.977Z,56151.91
2019-02-17T16:39:19.853Z,56146.77
2019-02-17T16:41:49.971Z,56146.77
2019-02-17T16:44:20.055Z,56161.17
2019-02-17T16:46:49.989Z,56120.04
2019-02-17T16:49:19.844Z,56137.52
2019-02-17T16:51:49.670Z,56126.21
2019-02-17T16:54:19.558Z,56184.82
2019-02-17T16:56:49.390Z,56129.29
2019-02-17T16:59:19.281Z,56155.00
2019-02-17T17:01:49.244Z,56133.41
2019-02-17T17:04:19.577Z,56187.90
2019-02-17T17:06:49.446Z,56141.63
2019-02-17T17:09:19.689Z,56131.35
2019-02-17T17:11:49.632Z,56111.81
2019-02-17T17:14:19.515Z,56131.35
2019-02-17T17:16:49.913Z,56156.03
2019-02-17T17:19:19.797Z,56144.71
2019-02-17T17:21:49.888Z,56151.91
2019-02-17T17:24:19.955Z,56175.56
2019-02-17T17:26:49.887Z,56156.03
2019-02-17T17:29:19.765Z,56150.89
2019-02-17T17:31:49.623Z,56134.43
2019-02-17T17:34:19.738Z,56177.62
2019-02-17T17:36:49.635Z,56155.00
2019-02-17T17:39:19.497Z,56156.03
2019-02-17T17:41:49.599Z,56167.34
2019-02-17T17:44:19.514Z,56147.80
2019-02-17T17:46:49.438Z,56158.09
2019-02-17T17:49:19.605Z,56192.02
2019-02-17T17:51:49.564Z,56149.86
2019-02-17T17:54:19.716Z,56216.70
2019-02-17T17:56:49.598Z,56161.17
2019-02-17T17:59:19.508Z,56168.37
2019-02-17T18:01:49.361Z,56157.05
2019-02-17T18:04:19.258Z,56202.30
2019-02-17T18:06:49.161Z,56176.59
2019-02-17T18:09:19.517Z,56147.80
2019-02-17T18:11:49.403Z,56207.44
2019-02-17T18:14:19.309Z,56175.56
2019-02-17T18:16:49.187Z,56174.54
2019-02-17T18:19:19.098Z,56180.71
2019-02-17T18:21:48.951Z,56180.71
2019-02-17T18:24:19.100Z,56178.65
2019-02-17T18:26:48.948Z,56174.54
2019-02-17T18:29:19.047Z,56131.35
2019-02-17T18:31:48.930Z,56175.56
2019-02-17T18:34:18.801Z,56143.69
2019-02-17T18:36:49.756Z,56153.97
2019-02-17T18:39:19.877Z,56177.62
2019-02-17T18:41:49.766Z,56175.56
2019-02-17T18:44:19.861Z,56180.71
2019-02-17T18:46:49.963Z,56176.59
2019-02-17T18:49:20.056Z,56153.97
2019-02-17T18:51:50.157Z,56172.48
2019-02-17T18:54:20.009Z,56150.89
2019-02-17T18:56:50.167Z,56168.37
2019-02-17T18:59:20.239Z,56165.28
2019-02-17T19:01:50.086Z,56162.20
2019-02-17T19:04:20.229Z,56166.31
2019-02-17T19:06:50.087Z,56207.44
2019-02-17T19:09:20.428Z,56143.69
2019-02-17T19:11:50.307Z,56209.50
2019-02-17T19:14:20.213Z,56170.42
2019-02-17T19:16:50.027Z,56190.99
2019-02-17T19:19:20.218Z,56182.76
2019-02-17T19:21:50.097Z,56196.13
2019-02-17T19:24:19.930Z,56165.28
2019-02-17T19:26:49.793Z,56182.76
2019-02-17T19:29:19.974Z,56162.20
2019-02-17T19:31:49.813Z,56197.16
2019-02-17T19:34:19.759Z,56205.38
2019-02-17T19:36:49.859Z,56174.54
2019-02-17T19:39:19.717Z,56170.42
2019-02-17T19:41:49.574Z,56165.28
2019-02-17T19:44:19.660Z,56156.03
2019-02-17T19:46:49.609Z,56164.25
2019-02-17T19:49:19.468Z,56156.03
2019-02-17T19:51:49.720Z,56163.23
2019-02-17T19:54:19.834Z,56192.02
2019-02-17T19:56:49.716Z,56177.62
2019-02-17T19:59:19.820Z,56184.82
2019-02-17T20:01:49.731Z,56180.71
2019-02-17T20:04:25.153Z,56176.59
2019-02-17T20:06:55.006Z,56184.82
2019-02-17T20:09:24.886Z,56209.50
2019-02-17T20:11:54.764Z,56178.65
2019-02-17T20:14:24.858Z,56195.10
2019-02-17T20:16:54.736Z,56192.02
2019-02-17T20:19:25.771Z,56161.17
2019-02-17T20:21:55.727Z,56177.62
2019-02-17T20:24:25.597Z,56206.41
2019-02-17T20:26:55.465Z,56145.75
2019-02-17T20:29:25.637Z,56145.75
2019-02-17T20:31:55.532Z,56178.65
2019-02-17T20:34:25.355Z,56184.82
2019-02-17T20:36:55.506Z,56174.54
2019-02-17T20:39:25.598Z,56212.58
2019-02-17T20:41:55.425Z,56161.17
2019-02-17T20:44:25.752Z,56178.65
2019-02-17T20:46:55.629Z,56201.27
2019-02-17T20:49:26.239Z,56217.72
2019-02-17T20:51:56.325Z,56197.16
2019-02-17T20:54:26.402Z,56213.61
2019-02-17T20:56:56.480Z,56186.87
2019-02-17T20:59:26.382Z,56168.37
2019-02-17T21:01:56.229Z,56174.54
2019-02-17T21:04:26.212Z,56195.10
2019-02-17T21:06:56.315Z,56188.93
2019-02-17T21:09:26.187Z,56172.48
2019-02-17T21:11:56.088Z,56187.90
2019-02-17T21:14:25.945Z,56186.87
2019-02-17T21:16:55.775Z,56193.05
2019-02-17T21:19:25.645Z,56213.61
2019-02-17T21:21:56.008Z,56197.16
2019-02-17T21:24:25.824Z,56213.61
2019-02-17T21:26:55.696Z,56204.36
2019-02-17T21:29:25.811Z,56184.82
2019-02-17T21:31:55.639Z,56181.73
2019-02-17T21:34:25.554Z,56179.68
2019-02-17T21:36:55.656Z,56208.47
2019-02-17T21:39:25.881Z,56202.30
2019-02-17T21:41:56.189Z,56226.98
2019-02-17T21:44:26.290Z,56206.41
2019-02-17T21:46:56.502Z,56205.38
2019-02-17T21:49:26.592Z,56180.71
2019-02-17T21:51:56.463Z,56217.72
2019-02-17T21:54:26.348Z,56183.79
2019-02-17T21:56:56.197Z,56181.73
2019-02-17T21:59:26.644Z,56222.87
2019-02-17T22:01:56.543Z,56184.82
2019-02-17T22:04:26.410Z,56179.68
2019-02-17T22:06:56.224Z,56205.38
2019-02-17T22:09:26.089Z,56176.59
2019-02-17T22:11:56.173Z,56201.27
2019-02-17T22:14:26.047Z,56186.87
2019-02-17T22:16:55.926Z,56201.27
2019-02-17T22:19:25.936Z,56195.10
2019-02-17T22:21:55.778Z,56193.05
2019-02-17T22:24:25.597Z,56210.52
2019-02-17T22:26:55.737Z,56197.16
2019-02-17T22:29:25.697Z,56199.21
2019-02-17T22:31:55.591Z,56197.16
2019-02-17T22:34:25.427Z,56212.58
2019-02-17T22:36:55.283Z,56190.99
2019-02-17T22:39:25.974Z,56232.12
2019-02-17T22:41:55.831Z,56219.78
2019-02-17T22:44:25.901Z,56200.24
2019-02-17T22:46:55.764Z,56170.42
2019-02-17T22:49:25.602Z,56226.98
2019-02-17T22:51:55.713Z,56197.16
2019-02-17T22:54:25.609Z,56216.70
2019-02-17T22:56:55.519Z,56205.38
2019-02-17T22:59:25.864Z,56223.89
2019-02-17T23:01:56.441Z,56197.16
2019-02-17T23:04:26.498Z,56203.33
2019-02-17T23:06:56.360Z,56212.58
2019-02-17T23:09:26.874Z,56223.89
2019-02-17T23:11:56.738Z,56217.72
2019-02-17T23:14:26.648Z,56197.16
2019-02-17T23:16:56.514Z,56187.90
2019-02-17T23:19:26.347Z,56208.47
2019-02-17T23:21:56.176Z,56207.44
2019-02-17T23:24:26.403Z,56157.05
2019-02-17T23:26:56.991Z,56214.64
2019-02-17T23:29:26.855Z,56210.52
2019-02-17T23:31:56.693Z,56208.47
2019-02-17T23:34:26.786Z,56208.47
2019-02-17T23:37:03.748Z,56192.02
2019-02-17T23:39:28.199Z,56217.72
2019-02-17T23:41:58.301Z,56208.47
2019-02-17T23:44:28.147Z,56174.54
2019-02-17T23:46:58.030Z,56198.19
2019-02-17T23:49:27.959Z,56230.06
2019-02-17T23:51:58.087Z,56202.30
2019-02-17T23:54:27.943Z,56233.15
2019-02-17T23:56:57.806Z,56198.19
2019-02-17T23:59:27.945Z,56222.87
